sensor_id;sensor_type;location;lat;lon;timestamp;temperature;humidity
69436;SHT31;56625;54.322;18.582;2023-03-26T00:01:38;7.00;82.62
69436;SHT31;56625;54.322;18.582;2023-03-26T00:04:06;6.99;82.75
69436;SHT31;56625;54.322;18.582;2023-03-26T00:06:35;6.98;82.89
69436;SHT31;56625;54.322;18.582;2023-03-26T00:09:07;6.99;82.99
69436;SHT31;56625;54.322;18.582;2023-03-26T00:11:46;6.99;83.08
69436;SHT31;56625;54.322;18.582;2023-03-26T00:14:13;6.99;83.10
69436;SHT31;56625;54.322;18.582;2023-03-26T00:16:44;6.99;83.11
69436;SHT31;56625;54.322;18.582;2023-03-26T00:19:14;7.00;83.22
69436;SHT31;56625;54.322;18.582;2023-03-26T00:21:42;7.03;83.35
69436;SHT31;56625;54.322;18.582;2023-03-26T00:24:10;7.07;83.31
69436;SHT31;56625;54.322;18.582;2023-03-26T00:26:43;7.06;83.41
69436;SHT31;56625;54.322;18.582;2023-03-26T00:29:15;7.05;83.71
69436;SHT31;56625;54.322;18.582;2023-03-26T00:31:43;7.06;83.86
69436;SHT31;56625;54.322;18.582;2023-03-26T00:34:13;7.07;84.12
69436;SHT31;56625;54.322;18.582;2023-03-26T00:36:45;7.08;84.19
69436;SHT31;56625;54.322;18.582;2023-03-26T00:39:13;7.11;84.26
69436;SHT31;56625;54.322;18.582;2023-03-26T00:41:41;7.11;84.52
69436;SHT31;56625;54.322;18.582;2023-03-26T00:44:10;7.11;84.54
69436;SHT31;56625;54.322;18.582;2023-03-26T00:46:39;7.11;84.55
69436;SHT31;56625;54.322;18.582;2023-03-26T00:49:07;7.11;84.61
69436;SHT31;56625;54.322;18.582;2023-03-26T00:51:37;7.10;84.66
69436;SHT31;56625;54.322;18.582;2023-03-26T00:54:06;7.09;84.59
69436;SHT31;56625;54.322;18.582;2023-03-26T00:56:35;7.10;84.57
69436;SHT31;56625;54.322;18.582;2023-03-26T00:59:03;7.11;84.61
69436;SHT31;56625;54.322;18.582;2023-03-26T01:01:31;7.12;84.64
69436;SHT31;56625;54.322;18.582;2023-03-26T01:04:20;7.13;84.66
69436;SHT31;56625;54.322;18.582;2023-03-26T01:06:59;7.16;84.58
69436;SHT31;56625;54.322;18.582;2023-03-26T01:09:36;7.18;84.51
69436;SHT31;56625;54.322;18.582;2023-03-26T01:12:12;7.22;84.41
69436;SHT31;56625;54.322;18.582;2023-03-26T01:14:44;7.29;84.43
69436;SHT31;56625;54.322;18.582;2023-03-26T01:17:14;7.33;84.25
69436;SHT31;56625;54.322;18.582;2023-03-26T01:22:47;7.44;84.04
69436;SHT31;56625;54.322;18.582;2023-03-26T01:25:19;7.46;83.89
69436;SHT31;56625;54.322;18.582;2023-03-26T01:27:53;7.45;83.81
69436;SHT31;56625;54.322;18.582;2023-03-26T01:30:39;7.45;83.77
69436;SHT31;56625;54.322;18.582;2023-03-26T01:44:19;7.33;83.68
69436;SHT31;56625;54.322;18.582;2023-03-26T01:46:58;7.32;83.72
69436;SHT31;56625;54.322;18.582;2023-03-26T01:49:27;7.29;83.80
69436;SHT31;56625;54.322;18.582;2023-03-26T01:51:56;7.25;83.80
69436;SHT31;56625;54.322;18.582;2023-03-26T01:54:27;7.23;83.80
69436;SHT31;56625;54.322;18.582;2023-03-26T01:57:01;7.20;83.80
69436;SHT31;56625;54.322;18.582;2023-03-26T01:59:45;7.17;83.81
69436;SHT31;56625;54.322;18.582;2023-03-26T02:05:48;7.15;84.10
69436;SHT31;56625;54.322;18.582;2023-03-26T02:09:04;7.15;84.21
69436;SHT31;56625;54.322;18.582;2023-03-26T02:11:37;7.16;84.20
69436;SHT31;56625;54.322;18.582;2023-03-26T02:14:08;7.17;84.20
69436;SHT31;56625;54.322;18.582;2023-03-26T02:16:37;7.20;84.19
69436;SHT31;56625;54.322;18.582;2023-03-26T02:19:05;7.23;84.11
69436;SHT31;56625;54.322;18.582;2023-03-26T02:21:42;7.27;84.05
69436;SHT31;56625;54.322;18.582;2023-03-26T02:24:10;7.29;83.95
69436;SHT31;56625;54.322;18.582;2023-03-26T02:26:38;7.31;83.97
69436;SHT31;56625;54.322;18.582;2023-03-26T02:29:06;7.32;84.00
69436;SHT31;56625;54.322;18.582;2023-03-26T02:31:34;7.32;83.93
69436;SHT31;56625;54.322;18.582;2023-03-26T02:34:03;7.33;83.91
69436;SHT31;56625;54.322;18.582;2023-03-26T02:36:31;7.31;83.91
69436;SHT31;56625;54.322;18.582;2023-03-26T02:38:59;7.33;83.98
69436;SHT31;56625;54.322;18.582;2023-03-26T02:41:27;7.32;84.05
69436;SHT31;56625;54.322;18.582;2023-03-26T02:43:55;7.31;84.10
69436;SHT31;56625;54.322;18.582;2023-03-26T02:46:23;7.31;84.10
69436;SHT31;56625;54.322;18.582;2023-03-26T02:48:50;7.31;84.08
69436;SHT31;56625;54.322;18.582;2023-03-26T02:51:18;7.29;84.19
69436;SHT31;56625;54.322;18.582;2023-03-26T02:53:46;7.28;84.20
69436;SHT31;56625;54.322;18.582;2023-03-26T02:56:14;7.29;84.18
69436;SHT31;56625;54.322;18.582;2023-03-26T02:58:42;7.31;84.17
69436;SHT31;56625;54.322;18.582;2023-03-26T03:01:10;7.31;84.11
69436;SHT31;56625;54.322;18.582;2023-03-26T03:03:37;7.30;84.16
69436;SHT31;56625;54.322;18.582;2023-03-26T03:06:05;7.30;84.24
69436;SHT31;56625;54.322;18.582;2023-03-26T03:08:35;7.28;84.32
69436;SHT31;56625;54.322;18.582;2023-03-26T03:11:10;7.27;84.41
69436;SHT31;56625;54.322;18.582;2023-03-26T03:13:42;7.26;84.45
69436;SHT31;56625;54.322;18.582;2023-03-26T03:16:12;7.26;84.41
69436;SHT31;56625;54.322;18.582;2023-03-26T03:18:40;7.27;84.45
69436;SHT31;56625;54.322;18.582;2023-03-26T03:21:08;7.27;84.48
69436;SHT31;56625;54.322;18.582;2023-03-26T03:23:35;7.28;84.52
69436;SHT31;56625;54.322;18.582;2023-03-26T03:26:04;7.28;84.45
69436;SHT31;56625;54.322;18.582;2023-03-26T03:28:40;7.29;84.54
69436;SHT31;56625;54.322;18.582;2023-03-26T03:31:09;7.29;84.62
69436;SHT31;56625;54.322;18.582;2023-03-26T03:33:37;7.29;84.66
69436;SHT31;56625;54.322;18.582;2023-03-26T03:36:05;7.29;84.74
69436;SHT31;56625;54.322;18.582;2023-03-26T03:38:47;7.30;84.81
69436;SHT31;56625;54.322;18.582;2023-03-26T03:41:16;7.30;84.79
69436;SHT31;56625;54.322;18.582;2023-03-26T03:43:45;7.30;84.87
69436;SHT31;56625;54.322;18.582;2023-03-26T03:46:13;7.30;84.91
69436;SHT31;56625;54.322;18.582;2023-03-26T03:48:41;7.31;84.92
69436;SHT31;56625;54.322;18.582;2023-03-26T03:51:15;7.32;84.91
69436;SHT31;56625;54.322;18.582;2023-03-26T03:53:45;7.32;84.90
69436;SHT31;56625;54.322;18.582;2023-03-26T03:56:14;7.32;84.93
69436;SHT31;56625;54.322;18.582;2023-03-26T03:58:45;7.34;84.95
69436;SHT31;56625;54.322;18.582;2023-03-26T04:01:13;7.35;85.00
69436;SHT31;56625;54.322;18.582;2023-03-26T04:03:43;7.36;84.99
69436;SHT31;56625;54.322;18.582;2023-03-26T04:06:13;7.38;84.94
69436;SHT31;56625;54.322;18.582;2023-03-26T04:08:45;7.39;85.00
69436;SHT31;56625;54.322;18.582;2023-03-26T04:11:14;7.39;85.09
69436;SHT31;56625;54.322;18.582;2023-03-26T04:13:42;7.40;85.13
69436;SHT31;56625;54.322;18.582;2023-03-26T04:16:11;7.41;85.13
69436;SHT31;56625;54.322;18.582;2023-03-26T04:18:38;7.46;85.07
69436;SHT31;56625;54.322;18.582;2023-03-26T04:21:07;7.47;84.99
69436;SHT31;56625;54.322;18.582;2023-03-26T04:23:35;7.47;85.05
69436;SHT31;56625;54.322;18.582;2023-03-26T04:26:06;7.46;85.19
69436;SHT31;56625;54.322;18.582;2023-03-26T04:28:41;7.47;85.22
69436;SHT31;56625;54.322;18.582;2023-03-26T04:31:17;7.47;85.20
69436;SHT31;56625;54.322;18.582;2023-03-26T04:33:51;7.49;85.21
69436;SHT31;56625;54.322;18.582;2023-03-26T04:36:28;7.50;85.29
69436;SHT31;56625;54.322;18.582;2023-03-26T04:39:01;7.51;85.37
69436;SHT31;56625;54.322;18.582;2023-03-26T04:41:31;7.51;85.38
69436;SHT31;56625;54.322;18.582;2023-03-26T04:43:59;7.51;85.48
69436;SHT31;56625;54.322;18.582;2023-03-26T04:46:28;7.51;85.54
69436;SHT31;56625;54.322;18.582;2023-03-26T04:49:00;7.50;85.78
69436;SHT31;56625;54.322;18.582;2023-03-26T04:51:31;7.48;85.81
69436;SHT31;56625;54.322;18.582;2023-03-26T04:54:05;7.51;85.87
69436;SHT31;56625;54.322;18.582;2023-03-26T04:56:43;7.50;86.02
69436;SHT31;56625;54.322;18.582;2023-03-26T04:59:28;7.51;86.09
69436;SHT31;56625;54.322;18.582;2023-03-26T05:02:02;7.51;86.13
69436;SHT31;56625;54.322;18.582;2023-03-26T05:04:32;7.52;86.15
69436;SHT31;56625;54.322;18.582;2023-03-26T05:07:03;7.54;86.17
69436;SHT31;56625;54.322;18.582;2023-03-26T05:09:31;7.56;86.22
69436;SHT31;56625;54.322;18.582;2023-03-26T05:11:58;7.59;86.20
69436;SHT31;56625;54.322;18.582;2023-03-26T05:14:26;7.63;86.20
69436;SHT31;56625;54.322;18.582;2023-03-26T05:16:54;7.66;86.33
69436;SHT31;56625;54.322;18.582;2023-03-26T05:19:23;7.64;86.53
69436;SHT31;56625;54.322;18.582;2023-03-26T05:21:51;7.64;86.48
69436;SHT31;56625;54.322;18.582;2023-03-26T05:24:19;7.64;86.55
69436;SHT31;56625;54.322;18.582;2023-03-26T05:26:47;7.62;86.53
69436;SHT31;56625;54.322;18.582;2023-03-26T05:29:15;7.61;86.48
69436;SHT31;56625;54.322;18.582;2023-03-26T05:31:44;7.60;86.37
69436;SHT31;56625;54.322;18.582;2023-03-26T05:34:12;7.60;86.26
69436;SHT31;56625;54.322;18.582;2023-03-26T05:36:40;7.57;85.79
69436;SHT31;56625;54.322;18.582;2023-03-26T05:39:09;7.56;85.63
69436;SHT31;56625;54.322;18.582;2023-03-26T05:41:36;7.52;85.25
69436;SHT31;56625;54.322;18.582;2023-03-26T05:44:04;7.49;85.19
69436;SHT31;56625;54.322;18.582;2023-03-26T05:46:32;7.47;84.93
69436;SHT31;56625;54.322;18.582;2023-03-26T05:49:00;7.46;84.87
69436;SHT31;56625;54.322;18.582;2023-03-26T05:51:28;7.45;84.92
69436;SHT31;56625;54.322;18.582;2023-03-26T05:53:56;7.46;84.89
69436;SHT31;56625;54.322;18.582;2023-03-26T05:56:24;7.50;84.89
69436;SHT31;56625;54.322;18.582;2023-03-26T05:58:52;7.52;84.72
69436;SHT31;56625;54.322;18.582;2023-03-26T06:01:19;7.55;84.53
69436;SHT31;56625;54.322;18.582;2023-03-26T06:03:47;7.59;84.50
69436;SHT31;56625;54.322;18.582;2023-03-26T06:06:17;7.63;84.50
69436;SHT31;56625;54.322;18.582;2023-03-26T06:08:47;7.68;84.34
69436;SHT31;56625;54.322;18.582;2023-03-26T06:11:29;7.75;84.32
69436;SHT31;56625;54.322;18.582;2023-03-26T06:13:58;7.82;83.96
69436;SHT31;56625;54.322;18.582;2023-03-26T06:16:27;7.86;83.77
69436;SHT31;56625;54.322;18.582;2023-03-26T06:18:55;7.92;83.50
69436;SHT31;56625;54.322;18.582;2023-03-26T06:21:24;7.93;83.36
69436;SHT31;56625;54.322;18.582;2023-03-26T06:23:54;7.95;83.53
69436;SHT31;56625;54.322;18.582;2023-03-26T06:26:22;7.94;83.45
69436;SHT31;56625;54.322;18.582;2023-03-26T06:28:49;7.93;83.42
69436;SHT31;56625;54.322;18.582;2023-03-26T06:31:17;7.94;83.54
69436;SHT31;56625;54.322;18.582;2023-03-26T06:33:45;7.94;83.57
69436;SHT31;56625;54.322;18.582;2023-03-26T06:36:15;7.94;83.49
69436;SHT31;56625;54.322;18.582;2023-03-26T06:38:43;7.93;83.43
69436;SHT31;56625;54.322;18.582;2023-03-26T06:41:11;7.92;83.32
69436;SHT31;56625;54.322;18.582;2023-03-26T06:43:39;7.91;83.29
69436;SHT31;56625;54.322;18.582;2023-03-26T06:46:07;7.89;83.15
69436;SHT31;56625;54.322;18.582;2023-03-26T06:48:35;7.87;82.98
69436;SHT31;56625;54.322;18.582;2023-03-26T06:51:04;7.87;83.19
69436;SHT31;56625;54.322;18.582;2023-03-26T06:53:33;7.87;83.27
69436;SHT31;56625;54.322;18.582;2023-03-26T06:56:06;7.85;83.23
69436;SHT31;56625;54.322;18.582;2023-03-26T06:58:35;7.83;83.22
69436;SHT31;56625;54.322;18.582;2023-03-26T07:01:03;7.85;83.38
69436;SHT31;56625;54.322;18.582;2023-03-26T07:03:34;7.85;83.34
69436;SHT31;56625;54.322;18.582;2023-03-26T07:06:03;7.86;83.25
69436;SHT31;56625;54.322;18.582;2023-03-26T07:08:37;7.86;82.99
69436;SHT31;56625;54.322;18.582;2023-03-26T07:11:05;7.85;82.97
69436;SHT31;56625;54.322;18.582;2023-03-26T07:13:33;7.86;82.94
69436;SHT31;56625;54.322;18.582;2023-03-26T07:16:03;7.88;83.03
69436;SHT31;56625;54.322;18.582;2023-03-26T07:18:32;7.91;82.94
69436;SHT31;56625;54.322;18.582;2023-03-26T07:21:00;7.93;82.84
69436;SHT31;56625;54.322;18.582;2023-03-26T07:23:33;7.97;82.69
69436;SHT31;56625;54.322;18.582;2023-03-26T07:32:18;8.01;82.58
69436;SHT31;56625;54.322;18.582;2023-03-26T07:38:01;8.00;82.39
69436;SHT31;56625;54.322;18.582;2023-03-26T07:47:00;7.87;83.27
69436;SHT31;56625;54.322;18.582;2023-03-26T07:49:43;7.83;83.48
69436;SHT31;56625;54.322;18.582;2023-03-26T07:52:12;7.78;83.82
69436;SHT31;56625;54.322;18.582;2023-03-26T07:54:40;7.76;84.22
69436;SHT31;56625;54.322;18.582;2023-03-26T07:57:15;7.75;84.40
69436;SHT31;56625;54.322;18.582;2023-03-26T08:02:48;7.76;84.59
69436;SHT31;56625;54.322;18.582;2023-03-26T08:08:37;7.83;83.50
69436;SHT31;56625;54.322;18.582;2023-03-26T08:20:18;7.93;82.24
69436;SHT31;56625;54.322;18.582;2023-03-26T08:23:23;7.95;82.00
69436;SHT31;56625;54.322;18.582;2023-03-26T08:26:27;8.04;81.32
69436;SHT31;56625;54.322;18.582;2023-03-26T08:31:54;8.17;80.16
69436;SHT31;56625;54.322;18.582;2023-03-26T08:34:23;8.26;79.91
69436;SHT31;56625;54.322;18.582;2023-03-26T08:36:52;8.31;78.92
69436;SHT31;56625;54.322;18.582;2023-03-26T08:39:20;8.31;78.49
69436;SHT31;56625;54.322;18.582;2023-03-26T08:57:33;8.90;78.07
69436;SHT31;56625;54.322;18.582;2023-03-26T09:10:14;9.05;75.81
69436;SHT31;56625;54.322;18.582;2023-03-26T09:33:14;9.30;75.19
69436;SHT31;56625;54.322;18.582;2023-03-26T09:38:44;9.37;75.08
69436;SHT31;56625;54.322;18.582;2023-03-26T09:44:54;9.38;75.97
69436;SHT31;56625;54.322;18.582;2023-03-26T09:53:34;9.19;78.97
69436;SHT31;56625;54.322;18.582;2023-03-26T10:02:29;9.25;80.59
69436;SHT31;56625;54.322;18.582;2023-03-26T10:08:24;9.02;80.65
69436;SHT31;56625;54.322;18.582;2023-03-26T10:11:26;8.86;80.37
69436;SHT31;56625;54.322;18.582;2023-03-26T10:14:25;8.70;80.72
69436;SHT31;56625;54.322;18.582;2023-03-26T10:20:27;8.81;80.72
69436;SHT31;56625;54.322;18.582;2023-03-26T10:29:41;8.94;79.32
69436;SHT31;56625;54.322;18.582;2023-03-26T10:36:29;8.89;78.47
69436;SHT31;56625;54.322;18.582;2023-03-26T10:39:07;8.90;77.61
69436;SHT31;56625;54.322;18.582;2023-03-26T10:42:19;9.15;77.52
69436;SHT31;56625;54.322;18.582;2023-03-26T10:45:11;9.35;77.04
69436;SHT31;56625;54.322;18.582;2023-03-26T10:48:35;9.58;77.52
69436;SHT31;56625;54.322;18.582;2023-03-26T10:51:22;9.78;75.67
69436;SHT31;56625;54.322;18.582;2023-03-26T10:54:17;10.02;74.21
69436;SHT31;56625;54.322;18.582;2023-03-26T10:57:20;10.06;72.78
69436;SHT31;56625;54.322;18.582;2023-03-26T11:00:13;10.09;73.60
69436;SHT31;56625;54.322;18.582;2023-03-26T11:03:00;10.21;71.83
69436;SHT31;56625;54.322;18.582;2023-03-26T11:11:45;9.93;73.59
69436;SHT31;56625;54.322;18.582;2023-03-26T11:20:56;9.73;76.36
69436;SHT31;56625;54.322;18.582;2023-03-26T11:23:55;9.56;76.17
69436;SHT31;56625;54.322;18.582;2023-03-26T11:26:50;9.36;76.25
69436;SHT31;56625;54.322;18.582;2023-03-26T11:29:49;9.09;77.17
69436;SHT31;56625;54.322;18.582;2023-03-26T11:32:54;8.91;76.45
69436;SHT31;56625;54.322;18.582;2023-03-26T11:35:39;9.09;76.68
69436;SHT31;56625;54.322;18.582;2023-03-26T11:38:19;9.33;77.28
69436;SHT31;56625;54.322;18.582;2023-03-26T11:41:00;9.61;77.09
69436;SHT31;56625;54.322;18.582;2023-03-26T11:43:37;9.79;75.16
69436;SHT31;56625;54.322;18.582;2023-03-26T11:46:06;9.95;75.53
69436;SHT31;56625;54.322;18.582;2023-03-26T11:48:49;10.13;74.78
69436;SHT31;56625;54.322;18.582;2023-03-26T11:51:30;10.32;73.84
69436;SHT31;56625;54.322;18.582;2023-03-26T11:54:03;10.48;72.64
69436;SHT31;56625;54.322;18.582;2023-03-26T11:59:44;10.60;73.42
69436;SHT31;56625;54.322;18.582;2023-03-26T12:02:28;10.43;71.58
69436;SHT31;56625;54.322;18.582;2023-03-26T12:05:16;10.22;71.95
69436;SHT31;56625;54.322;18.582;2023-03-26T12:07:56;10.06;72.99
69436;SHT31;56625;54.322;18.582;2023-03-26T12:10:27;10.14;73.99
69436;SHT31;56625;54.322;18.582;2023-03-26T12:13:13;10.36;73.75
69436;SHT31;56625;54.322;18.582;2023-03-26T12:15:48;10.51;72.67
69436;SHT31;56625;54.322;18.582;2023-03-26T12:18:23;10.50;72.95
69436;SHT31;56625;54.322;18.582;2023-03-26T12:29:12;10.16;71.99
69436;SHT31;56625;54.322;18.582;2023-03-26T12:34:36;9.90;72.20
69436;SHT31;56625;54.322;18.582;2023-03-26T12:37:30;9.77;71.75
69436;SHT31;56625;54.322;18.582;2023-03-26T12:43:19;9.52;71.26
69436;SHT31;56625;54.322;18.582;2023-03-26T12:46:35;9.60;71.95
69436;SHT31;56625;54.322;18.582;2023-03-26T12:49:26;9.70;72.60
69436;SHT31;56625;54.322;18.582;2023-03-26T12:51:57;9.85;72.30
69436;SHT31;56625;54.322;18.582;2023-03-26T13:00:54;10.07;69.29
69436;SHT31;56625;54.322;18.582;2023-03-26T13:04:18;10.27;69.91
69436;SHT31;56625;54.322;18.582;2023-03-26T13:07:52;10.35;69.65
69436;SHT31;56625;54.322;18.582;2023-03-26T13:20:42;8.80;76.04
69436;SHT31;56625;54.322;18.582;2023-03-26T13:46:06;8.73;74.53
69436;SHT31;56625;54.322;18.582;2023-03-26T13:48:39;8.80;73.92
69436;SHT31;56625;54.322;18.582;2023-03-26T13:56:45;8.98;72.01
69436;SHT31;56625;54.322;18.582;2023-03-26T13:59:29;8.94;72.49
69436;SHT31;56625;54.322;18.582;2023-03-26T14:02:10;8.95;71.31
69436;SHT31;56625;54.322;18.582;2023-03-26T14:04:57;8.97;70.72
69436;SHT31;56625;54.322;18.582;2023-03-26T14:07:45;9.10;70.63
69436;SHT31;56625;54.322;18.582;2023-03-26T14:10:40;9.22;69.87
69436;SHT31;56625;54.322;18.582;2023-03-26T14:13:19;9.25;69.10
69436;SHT31;56625;54.322;18.582;2023-03-26T14:15:56;9.23;68.97
69436;SHT31;56625;54.322;18.582;2023-03-26T14:18:38;9.26;69.21
69436;SHT31;56625;54.322;18.582;2023-03-26T14:21:34;9.25;69.65
69436;SHT31;56625;54.322;18.582;2023-03-26T14:24:23;9.24;69.24
69436;SHT31;56625;54.322;18.582;2023-03-26T14:30:53;9.24;67.87
69436;SHT31;56625;54.322;18.582;2023-03-26T14:42:52;9.23;66.12
69436;SHT31;56625;54.322;18.582;2023-03-26T14:45:44;9.31;65.61
69436;SHT31;56625;54.322;18.582;2023-03-26T14:48:44;9.27;65.24
69436;SHT31;56625;54.322;18.582;2023-03-26T14:54:41;9.03;65.73
69436;SHT31;56625;54.322;18.582;2023-03-26T14:57:19;8.93;64.18
69436;SHT31;56625;54.322;18.582;2023-03-26T15:06:51;8.90;64.64
69436;SHT31;56625;54.322;18.582;2023-03-26T15:47:25;8.20;65.16
69436;SHT31;56625;54.322;18.582;2023-03-26T15:53:35;8.03;66.16
69436;SHT31;56625;54.322;18.582;2023-03-26T16:04:39;7.71;67.63
69436;SHT31;56625;54.322;18.582;2023-03-26T16:16:20;7.44;69.40
69436;SHT31;56625;54.322;18.582;2023-03-26T16:18:56;7.38;69.79
69436;SHT31;56625;54.322;18.582;2023-03-26T16:22:00;7.32;70.30
69436;SHT31;56625;54.322;18.582;2023-03-26T16:24:45;7.18;70.76
69436;SHT31;56625;54.322;18.582;2023-03-26T16:27:27;7.09;71.25
69436;SHT31;56625;54.322;18.582;2023-03-26T16:30:07;7.04;71.38
69436;SHT31;56625;54.322;18.582;2023-03-26T16:32:55;6.96;70.39
69436;SHT31;56625;54.322;18.582;2023-03-26T16:36:02;6.89;69.91
69436;SHT31;56625;54.322;18.582;2023-03-26T16:41:32;6.66;68.40
69436;SHT31;56625;54.322;18.582;2023-03-26T16:47:28;6.47;68.38
69436;SHT31;56625;54.322;18.582;2023-03-26T16:50:22;6.41;68.46
69436;SHT31;56625;54.322;18.582;2023-03-26T16:59:08;6.26;68.34
69436;SHT31;56625;54.322;18.582;2023-03-26T17:11:36;5.99;66.34
69436;SHT31;56625;54.322;18.582;2023-03-26T17:17:24;5.78;66.20
69436;SHT31;56625;54.322;18.582;2023-03-26T17:23:21;5.60;65.33
69436;SHT31;56625;54.322;18.582;2023-03-26T17:31:59;5.37;64.59
69436;SHT31;56625;54.322;18.582;2023-03-26T17:34:51;5.29;64.67
69436;SHT31;56625;54.322;18.582;2023-03-26T17:37:39;5.22;64.91
69436;SHT31;56625;54.322;18.582;2023-03-26T17:40:29;5.15;65.34
69436;SHT31;56625;54.322;18.582;2023-03-26T17:43:34;5.07;65.62
69436;SHT31;56625;54.322;18.582;2023-03-26T17:51:58;4.89;66.75
69436;SHT31;56625;54.322;18.582;2023-03-26T17:54:45;4.84;66.85
69436;SHT31;56625;54.322;18.582;2023-03-26T18:00:45;4.72;66.76
69436;SHT31;56625;54.322;18.582;2023-03-26T18:03:20;4.68;67.08
69436;SHT31;56625;54.322;18.582;2023-03-26T18:06:01;4.63;67.34
69436;SHT31;56625;54.322;18.582;2023-03-26T18:14:45;4.50;68.13
69436;SHT31;56625;54.322;18.582;2023-03-26T18:17:41;4.46;68.40
69436;SHT31;56625;54.322;18.582;2023-03-26T18:20:20;4.45;68.74
69436;SHT31;56625;54.322;18.582;2023-03-26T18:22:53;4.44;68.84
69436;SHT31;56625;54.322;18.582;2023-03-26T18:25:27;4.43;68.93
69436;SHT31;56625;54.322;18.582;2023-03-26T18:28:02;4.43;69.08
69436;SHT31;56625;54.322;18.582;2023-03-26T18:30:47;4.43;69.16
69436;SHT31;56625;54.322;18.582;2023-03-26T18:33:17;4.43;69.15
69436;SHT31;56625;54.322;18.582;2023-03-26T18:35:50;4.45;69.18
69436;SHT31;56625;54.322;18.582;2023-03-26T18:38:25;4.44;69.45
69436;SHT31;56625;54.322;18.582;2023-03-26T18:41:14;4.44;69.52
69436;SHT31;56625;54.322;18.582;2023-03-26T18:44:00;4.42;69.68
69436;SHT31;56625;54.322;18.582;2023-03-26T18:46:31;4.39;69.90
69436;SHT31;56625;54.322;18.582;2023-03-26T18:49:00;4.36;69.83
69436;SHT31;56625;54.322;18.582;2023-03-26T18:51:30;4.35;69.91
69436;SHT31;56625;54.322;18.582;2023-03-26T18:54:07;4.32;70.10
69436;SHT31;56625;54.322;18.582;2023-03-26T18:56:41;4.31;70.17
69436;SHT31;56625;54.322;18.582;2023-03-26T18:59:24;4.31;70.33
69436;SHT31;56625;54.322;18.582;2023-03-26T19:02:11;4.29;70.50
69436;SHT31;56625;54.322;18.582;2023-03-26T19:04:41;4.27;70.57
69436;SHT31;56625;54.322;18.582;2023-03-26T19:07:23;4.26;70.79
69436;SHT31;56625;54.322;18.582;2023-03-26T19:09:55;4.25;70.90
69436;SHT31;56625;54.322;18.582;2023-03-26T19:12:28;4.24;71.12
69436;SHT31;56625;54.322;18.582;2023-03-26T19:15:05;4.23;71.45
69436;SHT31;56625;54.322;18.582;2023-03-26T19:17:46;4.22;71.36
69436;SHT31;56625;54.322;18.582;2023-03-26T19:20:24;4.22;71.55
69436;SHT31;56625;54.322;18.582;2023-03-26T19:22:55;4.22;71.67
69436;SHT31;56625;54.322;18.582;2023-03-26T19:25:39;4.23;71.62
69436;SHT31;56625;54.322;18.582;2023-03-26T19:30:53;4.21;71.83
69436;SHT31;56625;54.322;18.582;2023-03-26T19:33:31;4.21;71.72
69436;SHT31;56625;54.322;18.582;2023-03-26T19:38:41;4.20;71.79
69436;SHT31;56625;54.322;18.582;2023-03-26T19:43:58;4.20;71.88
69436;SHT31;56625;54.322;18.582;2023-03-26T19:46:31;4.23;71.96
69436;SHT31;56625;54.322;18.582;2023-03-26T19:49:23;4.23;72.37
69436;SHT31;56625;54.322;18.582;2023-03-26T19:52:03;4.27;72.48
69436;SHT31;56625;54.322;18.582;2023-03-26T19:57:53;4.34;72.71
69436;SHT31;56625;54.322;18.582;2023-03-26T20:00:21;4.38;72.93
69436;SHT31;56625;54.322;18.582;2023-03-26T20:02:50;4.44;73.22
69436;SHT31;56625;54.322;18.582;2023-03-26T20:05:19;4.50;73.22
69436;SHT31;56625;54.322;18.582;2023-03-26T20:07:58;4.54;73.29
69436;SHT31;56625;54.322;18.582;2023-03-26T20:10:36;4.59;73.45
69436;SHT31;56625;54.322;18.582;2023-03-26T20:13:10;4.62;73.43
69436;SHT31;56625;54.322;18.582;2023-03-26T20:15:44;4.66;73.46
69436;SHT31;56625;54.322;18.582;2023-03-26T20:18:41;4.69;73.35
69436;SHT31;56625;54.322;18.582;2023-03-26T20:21:10;4.70;73.55
69436;SHT31;56625;54.322;18.582;2023-03-26T20:23:39;4.71;73.50
69436;SHT31;56625;54.322;18.582;2023-03-26T20:26:11;4.72;73.54
69436;SHT31;56625;54.322;18.582;2023-03-26T20:28:42;4.73;73.59
69436;SHT31;56625;54.322;18.582;2023-03-26T20:31:20;4.76;73.58
69436;SHT31;56625;54.322;18.582;2023-03-26T20:33:52;4.77;73.60
69436;SHT31;56625;54.322;18.582;2023-03-26T20:36:21;4.78;73.62
69436;SHT31;56625;54.322;18.582;2023-03-26T20:39:03;4.79;73.74
69436;SHT31;56625;54.322;18.582;2023-03-26T20:41:34;4.80;73.80
69436;SHT31;56625;54.322;18.582;2023-03-26T20:44:12;4.78;73.79
69436;SHT31;56625;54.322;18.582;2023-03-26T20:46:44;4.77;73.85
69436;SHT31;56625;54.322;18.582;2023-03-26T20:49:15;4.74;73.98
69436;SHT31;56625;54.322;18.582;2023-03-26T20:51:44;4.71;74.13
69436;SHT31;56625;54.322;18.582;2023-03-26T20:54:14;4.68;74.20
69436;SHT31;56625;54.322;18.582;2023-03-26T20:56:45;4.64;74.14
69436;SHT31;56625;54.322;18.582;2023-03-26T20:59:19;4.61;74.11
69436;SHT31;56625;54.322;18.582;2023-03-26T21:01:54;4.58;74.22
69436;SHT31;56625;54.322;18.582;2023-03-26T21:04:26;4.58;74.30
69436;SHT31;56625;54.322;18.582;2023-03-26T21:06:54;4.59;74.23
69436;SHT31;56625;54.322;18.582;2023-03-26T21:09:37;4.56;74.21
69436;SHT31;56625;54.322;18.582;2023-03-26T21:12:14;4.50;74.31
69436;SHT31;56625;54.322;18.582;2023-03-26T21:14:54;4.45;74.46
69436;SHT31;56625;54.322;18.582;2023-03-26T21:17:22;4.41;74.57
69436;SHT31;56625;54.322;18.582;2023-03-26T21:19:50;4.38;74.74
69436;SHT31;56625;54.322;18.582;2023-03-26T21:22:34;4.34;74.85
69436;SHT31;56625;54.322;18.582;2023-03-26T21:28:39;4.25;75.23
69436;SHT31;56625;54.322;18.582;2023-03-26T21:31:16;4.24;75.42
69436;SHT31;56625;54.322;18.582;2023-03-26T21:33:48;4.24;75.45
69436;SHT31;56625;54.322;18.582;2023-03-26T21:36:17;4.24;75.41
69436;SHT31;56625;54.322;18.582;2023-03-26T21:38:46;4.22;75.54
69436;SHT31;56625;54.322;18.582;2023-03-26T21:43:51;4.20;75.88
69436;SHT31;56625;54.322;18.582;2023-03-26T21:46:19;4.20;75.98
69436;SHT31;56625;54.322;18.582;2023-03-26T21:48:47;4.21;76.14
69436;SHT31;56625;54.322;18.582;2023-03-26T21:51:15;4.24;76.26
69436;SHT31;56625;54.322;18.582;2023-03-26T21:53:44;4.28;76.31
69436;SHT31;56625;54.322;18.582;2023-03-26T22:02:22;4.33;76.72
69436;SHT31;56625;54.322;18.582;2023-03-26T22:08:23;4.30;77.21
69436;SHT31;56625;54.322;18.582;2023-03-26T22:10:57;4.30;77.37
69436;SHT31;56625;54.322;18.582;2023-03-26T22:13:25;4.33;77.51
69436;SHT31;56625;54.322;18.582;2023-03-26T22:15:53;4.34;76.98
69436;SHT31;56625;54.322;18.582;2023-03-26T22:18:23;4.36;76.35
69436;SHT31;56625;54.322;18.582;2023-03-26T22:20:52;4.39;75.92
69436;SHT31;56625;54.322;18.582;2023-03-26T22:23:21;4.42;75.41
69436;SHT31;56625;54.322;18.582;2023-03-26T22:26:07;4.43;75.12
69436;SHT31;56625;54.322;18.582;2023-03-26T22:28:35;4.42;74.98
69436;SHT31;56625;54.322;18.582;2023-03-26T22:31:04;4.41;74.84